Time;durP1;ratioP1;P1;durP2;ratioP2;P2;SDS_P1;SDS_P2;PMS_P1;PMS_P2;Temp;Humidity;BMP_temperature;BMP_pressure;BME280_temperature;BME280_humidity;BME280_pressure;Samples;Min_cycle;Max_cycle;Signal;HPM_P1;HPM_P2
2023/05/22 00:00:37;;;;;;;17.73;16.13;;;15.70;99.90;;;;;;5097545;28;20246;-47
2023/05/22 00:03:04;;;;;;;18.67;16.97;;;15.70;99.90;;;;;;5096535;28;20176;-45
2023/05/22 00:05:30;;;;;;;17.03;15.60;;;15.70;99.90;;;;;;5097111;28;20417;-46
2023/05/22 00:07:56;;;;;;;16.83;15.33;;;15.70;99.90;;;;;;5096961;28;20418;-47
2023/05/22 00:10:21;;;;;;;18.33;16.73;;;15.70;99.90;;;;;;5097470;28;20267;-45
2023/05/22 00:12:47;;;;;;;16.87;15.37;;;15.70;99.90;;;;;;5096698;28;20226;-45
2023/05/22 00:15:12;;;;;;;15.87;14.47;;;15.60;99.90;;;;;;5096994;28;20180;-46
2023/05/22 00:17:38;;;;;;;16.63;15.20;;;15.60;99.90;;;;;;5096847;28;20276;-46
2023/05/22 00:20:09;;;;;;;16.87;15.37;;;15.60;99.90;;;;;;5096979;28;20173;-46
2023/05/22 00:22:35;;;;;;;16.87;15.37;;;15.50;99.90;;;;;;5096882;28;20184;-45
2023/05/22 00:25:05;;;;;;;16.60;15.13;;;15.50;99.90;;;;;;5096926;28;20475;-44
2023/05/22 00:27:31;;;;;;;17.90;16.00;;;15.50;99.90;;;;;;5096501;28;20661;-46
2023/05/22 00:29:57;;;;;;;17.83;16.27;;;15.50;99.90;;;;;;5096584;28;20468;-47
2023/05/22 00:32:22;;;;;;;17.03;15.53;;;15.40;99.90;;;;;;5096099;28;20517;-47
2023/05/22 00:34:49;;;;;;;17.83;16.27;;;15.40;99.90;;;;;;5096708;28;20526;-45
2023/05/22 00:37:14;;;;;;;17.27;15.57;;;15.40;99.90;;;;;;5096750;28;20643;-46
2023/05/22 00:39:40;;;;;;;17.70;15.90;;;15.40;99.90;;;;;;5096718;28;20414;-48
2023/05/22 00:42:05;;;;;;;17.10;15.60;;;15.50;99.90;;;;;;5096437;28;20199;-45
2023/05/22 00:44:31;;;;;;;16.73;15.03;;;15.50;99.90;;;;;;5095420;28;20176;-47
2023/05/22 00:46:57;;;;;;;16.20;14.80;;;15.60;99.90;;;;;;5097520;28;20180;-45
2023/05/22 00:49:22;;;;;;;16.93;15.43;;;15.70;99.90;;;;;;5096984;28;20180;-46
2023/05/22 00:51:48;;;;;;;16.73;15.20;;;15.70;41.50;;;;;;5098326;28;20514;-45
2023/05/22 00:54:14;;;;;;;16.50;15.00;;;15.80;10.00;;;;;;5101251;28;20226;-46
2023/05/22 00:56:41;;;;;;;15.97;14.33;;;15.80;1.00;;;;;;5100601;28;20466;-46
2023/05/22 00:59:07;;;;;;;16.13;14.73;;;15.80;1.00;;;;;;5100918;28;20495;-45
2023/05/22 01:01:36;;;;;;;16.00;14.60;;;15.90;1.00;;;;;;5100284;28;20414;-47
2023/05/22 01:04:06;;;;;;;16.87;15.27;;;15.90;1.00;;;;;;5100405;28;20438;-47
2023/05/22 01:06:32;;;;;;;17.13;15.53;;;16.00;1.00;;;;;;5100208;28;20510;-46
2023/05/22 01:08:58;;;;;;;18.00;16.40;;;16.00;1.00;;;;;;5100135;28;20422;-47
2023/05/22 01:11:58;;;;;;;17.57;16.07;;;16.00;99.90;;;;;;5099862;28;20423;-47
2023/05/22 01:14:40;;;;;;;16.83;15.33;;;16.00;99.90;;;;;;5055001;28;20188;-47
2023/05/22 01:17:21;;;;;;;16.40;15.00;;;16.00;99.90;;;;;;5099555;28;20465;-45
2023/05/22 01:19:49;;;;;;;17.07;15.47;;;15.90;99.90;;;;;;5098776;28;20410;-47
2023/05/22 01:22:27;;;;;;;15.60;14.30;;;15.90;99.90;;;;;;5098877;28;20429;-45
2023/05/22 01:25:20;;;;;;;17.07;15.47;;;15.80;99.90;;;;;;5099858;28;20698;-47
2023/05/22 01:28:17;;;;;;;16.10;14.00;;;15.80;99.90;;;;;;5067549;28;20490;-46
2023/05/22 01:31:01;;;;;;;16.70;15.00;;;15.70;99.90;;;;;;5092626;28;20442;-46
2023/05/22 01:33:31;;;;;;;17.80;16.20;;;15.80;99.90;;;;;;5098235;28;20546;-47
2023/05/22 01:35:57;;;;;;;17.13;14.97;;;15.70;99.90;;;;;;5081733;28;20470;-45
2023/05/22 01:38:23;;;;;;;16.03;14.63;;;15.70;1.00;;;;;;5098464;28;20410;-45
2023/05/22 01:40:49;;;;;;;16.87;15.23;;;15.70;99.90;;;;;;5099126;28;20418;-45
2023/05/22 01:43:15;;;;;;;18.07;16.47;;;15.60;1.00;;;;;;5098726;28;20479;-46
2023/05/22 01:45:40;;;;;;;16.70;15.20;;;15.70;99.90;;;;;;5099487;28;20438;-47
2023/05/22 01:48:06;;;;;;;16.47;15.07;;;15.70;99.90;;;;;;5098955;28;20410;-44
2023/05/22 01:50:32;;;;;;;17.30;15.80;;;15.70;99.90;;;;;;5099851;28;20649;-45
2023/05/22 01:53:07;;;;;;;17.70;16.10;;;15.70;99.90;;;;;;5098368;28;20180;-46
2023/05/22 01:55:45;;;;;;;16.80;15.30;;;15.70;99.90;;;;;;5098319;28;20802;-45
2023/05/22 01:58:44;;;;;;;17.23;15.70;;;15.70;1.00;;;;;;5098526;28;20442;-45
2023/05/22 02:01:11;;;;;;;16.00;14.47;;;15.70;1.00;;;;;;5099456;28;20419;-46
2023/05/22 02:03:39;;;;;;;16.13;14.63;;;15.70;1.00;;;;;;5098247;28;20449;-45
2023/05/22 02:06:06;;;;;;;16.67;15.07;;;15.70;1.00;;;;;;5098409;28;20839;-46
2023/05/22 02:08:33;;;;;;;15.93;14.53;;;15.70;99.90;;;;;;5099400;28;20509;-46
2023/05/22 02:10:59;;;;;;;17.03;15.63;;;15.80;99.90;;;;;;5098970;28;20410;-45
2023/05/22 02:13:25;;;;;;;16.40;14.90;;;15.80;99.90;;;;;;5096570;28;20552;-46
2023/05/22 02:19:13;;;;;;;16.27;14.77;;;15.70;99.90;;;;;;5096812;28;20221;-46
2023/05/22 02:21:39;;;;;;;17.40;15.70;;;15.60;99.90;;;;;;5096766;28;20422;-47
2023/05/22 02:24:05;;;;;;;16.47;14.97;;;15.60;99.90;;;;;;5097031;28;20423;-45
2023/05/22 02:26:31;;;;;;;16.50;15.00;;;15.60;99.90;;;;;;5097461;28;20561;-45
2023/05/22 02:28:57;;;;;;;15.60;14.17;;;15.60;99.90;;;;;;5098281;28;20263;-46
2023/05/22 02:31:22;;;;;;;16.57;15.00;;;15.60;99.90;;;;;;5098595;28;20613;-46
2023/05/22 02:33:48;;;;;;;16.43;14.87;;;15.70;99.90;;;;;;5098472;28;20764;-46
2023/05/22 02:36:14;;;;;;;16.17;14.77;;;15.70;99.90;;;;;;5098285;28;20219;-47
2023/05/22 02:38:39;;;;;;;15.10;13.80;;;15.70;99.90;;;;;;5098526;28;20218;-45
2023/05/22 02:41:06;;;;;;;15.20;13.80;;;15.70;1.00;;;;;;5098324;28;20454;-44
2023/05/22 02:43:32;;;;;;;15.83;14.43;;;15.70;1.00;;;;;;5097655;28;20176;-44
2023/05/22 02:45:57;;;;;;;17.17;15.47;;;15.80;1.00;;;;;;5079160;28;20437;-45
2023/05/22 02:48:23;;;;;;;16.10;14.60;;;15.80;99.90;;;;;;5097999;28;20534;-45
2023/05/22 02:50:49;;;;;;;17.00;15.57;;;15.80;1.00;;;;;;5097714;28;20203;-44
2023/05/22 02:53:15;;;;;;;16.47;15.07;;;15.80;99.90;;;;;;5098048;28;20180;-45
2023/05/22 02:55:41;;;;;;;16.63;15.13;;;15.80;99.90;;;;;;5098168;28;20200;-47
2023/05/22 02:58:10;;;;;;;16.53;15.03;;;15.80;99.90;;;;;;5097970;28;20410;-45
2023/05/22 03:00:39;;;;;;;15.77;14.37;;;15.80;99.90;;;;;;5097209;28;20543;-47
2023/05/22 03:03:05;;;;;;;16.00;14.60;;;15.70;1.00;;;;;;5096933;28;20411;-45
2023/05/22 03:05:32;;;;;;;16.70;15.27;;;15.70;1.00;;;;;;5094887;28;20428;-47
2023/05/22 03:07:57;;;;;;;17.30;15.80;;;15.60;1.00;;;;;;5095382;28;20426;-48
2023/05/22 03:10:23;;;;;;;17.23;15.60;;;15.60;1.00;;;;;;5094812;28;20711;-47
2023/05/22 03:12:50;;;;;;;17.37;15.63;;;15.50;1.00;;;;;;5095015;28;20523;-45
2023/05/22 03:15:17;;;;;;;17.83;16.10;;;15.40;1.00;;;;;;5094557;28;20263;-46
2023/05/22 03:17:42;;;;;;;15.73;14.33;;;15.30;46.20;;;;;;5094688;28;20430;-48
2023/05/22 03:20:09;;;;;;;17.67;16.07;;;15.20;99.90;;;;;;5095115;28;20418;-44
2023/05/22 03:22:34;;;;;;;16.70;15.20;;;15.20;99.90;;;;;;5096191;28;20192;-44
2023/05/22 03:25:00;;;;;;;16.00;14.60;;;15.30;99.90;;;;;;5096977;28;20414;-44
2023/05/22 03:27:26;;;;;;;17.03;15.40;;;15.40;99.90;;;;;;5097542;28;20245;-46
2023/05/22 03:29:51;;;;;;;17.63;16.07;;;15.40;99.90;;;;;;5097430;28;20422;-45
2023/05/22 03:32:17;;;;;;;16.40;14.90;;;15.50;99.90;;;;;;5098209;28;20267;-46
2023/05/22 03:34:43;;;;;;;17.43;15.90;;;15.60;1.00;;;;;;5097256;28;20187;-47
2023/05/22 03:37:08;;;;;;;15.77;14.30;;;15.60;1.00;;;;;;5095610;28;20204;-46
2023/05/22 03:39:34;;;;;;;16.80;15.20;;;15.60;1.00;;;;;;5094992;28;20566;-46
2023/05/22 03:42:00;;;;;;;17.50;16.00;;;15.60;1.00;;;;;;5095953;28;20176;-45
2023/05/22 03:44:26;;;;;;;17.70;16.10;;;15.70;1.00;;;;;;5096743;28;20403;-46
2023/05/22 03:46:51;;;;;;;15.67;14.33;;;15.70;1.00;;;;;;5097002;28;20181;-45
2023/05/22 03:49:17;;;;;;;16.30;14.90;;;15.60;1.00;;;;;;5096099;28;20411;-46
2023/05/22 03:51:42;;;;;;;16.40;14.90;;;15.60;1.00;;;;;;5096216;28;20211;-44
2023/05/22 03:54:08;;;;;;;16.07;14.57;;;15.60;1.00;;;;;;5096219;28;20176;-46
2023/05/22 03:56:34;;;;;;;16.23;14.63;;;15.60;1.00;;;;;;5095377;28;20287;-45
2023/05/22 03:59:00;;;;;;;16.60;15.00;;;15.70;1.00;;;;;;5095304;28;20493;-46
2023/05/22 04:01:25;;;;;;;16.10;14.70;;;15.70;1.00;;;;;;5095934;28;20431;-47
2023/05/22 04:03:51;;;;;;;16.90;15.40;;;15.70;1.00;;;;;;5096813;28;20184;-45
2023/05/22 04:06:20;;;;;;;16.90;15.40;;;15.80;1.00;;;;;;5095144;28;20724;-44
2023/05/22 04:08:47;;;;;;;15.63;14.23;;;15.80;1.00;;;;;;5094309;28;20268;-48
2023/05/22 04:11:14;;;;;;;17.17;15.67;;;15.80;1.00;;;;;;5094559;28;20706;-47
2023/05/22 04:13:40;;;;;;;16.47;15.07;;;15.80;1.00;;;;;;5095725;28;20415;-45
2023/05/22 04:16:06;;;;;;;17.10;15.50;;;15.80;1.00;;;;;;5094975;28;20534;-44
2023/05/22 04:18:32;;;;;;;17.17;15.60;;;15.70;1.00;;;;;;5094044;28;20788;-45
2023/05/22 04:20:57;;;;;;;14.83;13.53;;;15.70;1.00;;;;;;5094322;28;20184;-45
2023/05/22 04:23:23;;;;;;;16.17;14.77;;;15.80;1.00;;;;;;5096478;28;20317;-45
2023/05/22 04:25:49;;;;;;;17.30;15.80;;;15.80;1.00;;;;;;5094694;28;20424;-47
2023/05/22 04:28:21;;;;;;;16.77;15.27;;;15.80;99.90;;;;;;5097681;28;20228;-46
2023/05/22 04:30:47;;;;;;;16.20;14.77;;;15.90;99.90;;;;;;5098892;28;20433;-45
2023/05/22 04:33:13;;;;;;;16.00;14.47;;;15.90;99.90;;;;;;5098334;28;20494;-47
2023/05/22 04:35:39;;;;;;;18.07;16.40;;;15.90;99.90;;;;;;5097902;28;20883;-45
2023/05/22 04:38:05;;;;;;;17.07;15.47;;;15.90;99.90;;;;;;5098931;28;20260;-45
2023/05/22 04:40:32;;;;;;;18.23;16.67;;;15.90;1.00;;;;;;5099357;28;20763;-45
2023/05/22 04:42:59;;;;;;;15.73;14.33;;;15.90;1.00;;;;;;5100201;28;20505;-47
2023/05/22 04:45:29;;;;;;;16.70;15.10;;;16.00;1.00;;;;;;5098290;28;20866;-46
2023/05/22 04:47:55;;;;;;;16.60;15.10;;;16.10;1.00;;;;;;5097647;28;20492;-46
2023/05/22 04:50:21;;;;;;;15.97;14.53;;;16.20;99.90;;;;;;5096495;28;20707;-45
2023/05/22 04:52:47;;;;;;;15.90;14.60;;;16.30;99.90;;;;;;5096964;28;20418;-46
2023/05/22 04:55:13;;;;;;;13.90;12.73;;;16.50;99.90;;;;;;5096975;28;20526;-46
2023/05/22 04:57:39;;;;;;;17.37;15.87;;;16.60;1.00;;;;;;5098952;28;20465;-45
2023/05/22 05:00:06;;;;;;;16.60;15.00;;;16.70;1.00;;;;;;5096166;28;20852;-47
2023/05/22 05:02:32;;;;;;;16.80;15.30;;;16.90;99.90;;;;;;5094286;28;20775;-47
2023/05/22 05:04:57;;;;;;;16.57;15.00;;;17.00;99.90;;;;;;5094789;28;20445;-44
2023/05/22 05:07:23;;;;;;;19.57;15.60;;;17.00;99.90;;;;;;5092430;28;20546;-46
2023/05/22 05:09:49;;;;;;;16.30;14.80;;;17.10;99.90;;;;;;5091374;28;20451;-46
2023/05/22 05:12:15;;;;;;;16.00;14.63;;;17.10;99.90;;;;;;5091127;28;20640;-45
2023/05/22 05:14:41;;;;;;;17.07;15.33;;;17.20;99.90;;;;;;5090122;28;20172;-47
2023/05/22 05:17:06;;;;;;;16.03;14.60;;;17.20;99.90;;;;;;5091024;28;20605;-46
2023/05/22 05:19:33;;;;;;;17.83;16.13;;;17.20;99.90;;;;;;5093688;28;20173;-46
2023/05/22 05:21:59;;;;;;;18.00;16.30;;;17.20;99.90;;;;;;5088470;28;20196;-45
2023/05/22 05:24:24;;;;;;;20.53;18.67;;;17.10;99.90;;;;;;5091387;28;20421;-46
2023/05/22 05:26:50;;;;;;;17.60;16.00;;;17.20;99.90;;;;;;5091065;28;20720;-46
2023/05/22 05:29:15;;;;;;;18.30;16.60;;;17.20;99.90;;;;;;5093068;28;20274;-45
2023/05/22 05:31:41;;;;;;;18.73;17.03;;;17.20;99.90;;;;;;5092254;28;20545;-46
2023/05/22 05:34:07;;;;;;;18.60;16.80;;;17.20;99.90;;;;;;5094621;28;20180;-46
2023/05/22 05:36:33;;;;;;;18.33;16.37;;;17.30;1.00;;;;;;5095224;28;20215;-47
2023/05/22 05:38:59;;;;;;;17.00;15.33;;;17.40;1.00;;;;;;5094450;28;20168;-50
2023/05/22 05:41:25;;;;;;;18.13;16.37;;;17.60;1.00;;;;;;5092806;28;20418;-46
2023/05/22 05:43:51;;;;;;;17.60;15.90;;;17.80;99.90;;;;;;5094723;28;20517;-46
2023/05/22 05:46:17;;;;;;;19.10;17.20;;;17.90;1.00;;;;;;5094009;28;20426;-47
2023/05/22 05:48:43;;;;;;;18.00;16.30;;;18.10;1.00;;;;;;5091845;28;20172;-47
2023/05/22 05:51:09;;;;;;;16.93;15.33;;;18.20;99.90;;;;;;5089329;28;20859;-45
2023/05/22 05:53:39;;;;;;;18.47;16.80;;;18.40;24.90;;;;;;5094221;28;20736;-46
2023/05/22 05:56:06;;;;;;;15.87;14.37;;;18.70;99.90;;;;;;5094541;28;20616;-47
2023/05/22 05:58:31;;;;;;;15.80;14.40;;;18.90;99.90;;;;;;5093539;28;20502;-47
2023/05/22 06:00:57;;;;;;;17.33;15.83;;;19.10;1.00;;;;;;5092026;28;20433;-46
2023/05/22 06:03:24;;;;;;;16.10;14.60;;;19.30;99.90;;;;;;5094435;28;20271;-47
2023/05/22 06:05:50;;;;;;;17.63;13.73;;;19.40;96.00;;;;;;5095281;28;20693;-45
2023/05/22 06:08:31;;;;;;;15.90;14.40;;;19.60;1.00;;;;;;5074070;28;20435;-45
2023/05/22 06:10:56;;;;;;;17.30;15.87;;;19.70;1.00;;;;;;5093863;28;20693;-46
2023/05/22 06:13:22;;;;;;;15.00;13.70;;;19.80;1.00;;;;;;5094654;28;20627;-47
2023/05/22 06:15:47;;;;;;;18.43;16.73;;;19.90;1.00;;;;;;5094433;28;20200;-49
2023/05/22 06:18:13;;;;;;;17.60;15.90;;;19.90;99.90;;;;;;5094364;28;20187;-46
2023/05/22 06:20:39;;;;;;;16.70;15.10;;;20.00;99.90;;;;;;5093141;28;20434;-46
2023/05/22 06:23:04;;;;;;;19.80;18.00;;;20.10;99.90;;;;;;5091301;28;20173;-46
2023/05/22 06:25:30;;;;;;;18.23;16.43;;;20.30;99.90;;;;;;5094828;28;20176;-45
2023/05/22 06:27:55;;;;;;;18.07;16.50;;;20.30;72.70;;;;;;5094207;28;20563;-50
2023/05/22 06:30:21;;;;;;;22.40;17.77;;;20.30;78.20;;;;;;5096084;28;20219;-47
2023/05/22 06:32:47;;;;;;;19.87;17.63;;;20.40;1.00;;;;;;5095043;28;20194;-46
2023/05/22 06:35:13;;;;;;;18.63;17.03;;;20.30;1.00;;;;;;5093832;28;20495;-48
2023/05/22 06:37:41;;;;;;;18.57;16.87;;;20.30;1.00;;;;;;5095506;28;20208;-46
2023/05/22 06:40:08;;;;;;;16.50;15.00;;;20.30;1.00;;;;;;5095436;28;20410;-47
2023/05/22 06:42:34;;;;;;;16.90;15.30;;;20.30;1.00;;;;;;5092009;28;20422;-44
2023/05/22 06:45:00;;;;;;;17.13;15.60;;;20.40;1.00;;;;;;5093655;28;20414;-46
2023/05/22 06:47:26;;;;;;;19.23;17.43;;;20.40;1.00;;;;;;5078014;28;20458;-47
2023/05/22 06:49:51;;;;;;;19.73;17.80;;;20.40;1.00;;;;;;5095738;28;20253;-46
2023/05/22 06:52:17;;;;;;;17.77;16.13;;;20.40;1.00;;;;;;5096160;28;20436;-46
2023/05/22 06:54:43;;;;;;;16.57;15.00;;;20.30;1.00;;;;;;5095472;28;20210;-47
2023/05/22 06:57:09;;;;;;;18.50;16.70;;;20.30;1.00;;;;;;5094986;28;20609;-45
2023/05/22 06:59:35;;;;;;;19.47;17.67;;;20.30;1.00;;;;;;5096645;28;20446;-48
2023/05/22 07:02:01;;;;;;;17.37;15.67;;;20.30;1.00;;;;;;5095983;28;20434;-46
2023/05/22 07:04:26;;;;;;;18.80;17.10;;;20.20;1.00;;;;;;5093362;28;20599;-46
2023/05/22 07:06:52;;;;;;;17.33;15.73;;;20.20;37.00;;;;;;5075066;28;20185;-47
2023/05/22 07:09:18;;;;;;;16.93;15.33;;;20.00;99.90;;;;;;5073545;28;20165;-45
2023/05/22 07:11:45;;;;;;;15.60;14.30;;;19.80;99.90;;;;;;5075093;28;20219;-47
2023/05/22 07:14:13;;;;;;;16.63;15.17;;;19.70;99.90;;;;;;5074549;28;20574;-47
2023/05/22 07:16:40;;;;;;;17.43;15.83;;;19.60;1.00;;;;;;5074027;28;20774;-48
2023/05/22 07:19:07;;;;;;;16.83;15.33;;;19.50;1.00;;;;;;5072692;28;20408;-47
2023/05/22 07:21:36;;;;;;;17.10;15.60;;;19.30;99.90;;;;;;5073734;28;20671;-46
2023/05/22 07:24:06;;;;;;;18.80;17.00;;;19.30;99.90;;;;;;5071811;28;20407;-45
2023/05/22 07:26:36;;;;;;;16.60;15.10;;;19.30;1.00;;;;;;5072011;28;20426;-47
2023/05/22 07:29:02;;;;;;;18.30;16.50;;;19.20;1.00;;;;;;5072049;28;20921;-47
2023/05/22 07:31:27;;;;;;;18.30;16.73;;;19.20;23.80;;;;;;5073420;28;20546;-48
2023/05/22 07:33:53;;;;;;;16.40;14.90;;;19.20;20.10;;;;;;5072574;28;20419;-47
2023/05/22 07:36:19;;;;;;;18.77;17.07;;;19.30;94.20;;;;;;5072496;28;20205;-47
2023/05/22 07:38:45;;;;;;;17.33;15.73;;;19.40;1.00;;;;;;5071615;28;20166;-45
2023/05/22 07:41:12;;;;;;;17.30;15.70;;;19.40;1.00;;;;;;5073767;28;20788;-47
2023/05/22 07:43:38;;;;;;;17.33;15.87;;;19.30;85.10;;;;;;5092040;28;20169;-45
2023/05/22 07:46:05;;;;;;;19.43;17.63;;;19.20;99.90;;;;;;5093311;28;20483;-45
2023/05/22 07:48:30;;;;;;;19.93;17.60;;;19.20;99.90;;;;;;5093994;28;20554;-46
2023/05/22 07:50:56;;;;;;;17.23;15.77;;;19.30;99.90;;;;;;5094578;28;20437;-46
2023/05/22 07:53:22;;;;;;;16.83;15.23;;;19.30;1.00;;;;;;5094654;28;20176;-45
2023/05/22 07:55:48;;;;;;;18.73;17.03;;;19.50;99.90;;;;;;5094156;28;20907;-46
2023/05/22 07:58:15;;;;;;;17.13;15.60;;;19.60;99.90;;;;;;5093168;28;20183;-46
2023/05/22 08:00:41;;;;;;;16.70;15.20;;;19.80;87.70;;;;;;5091833;28;20173;-46
2023/05/22 08:03:06;;;;;;;17.53;15.93;;;20.00;1.00;;;;;;5093882;28;20839;-46
2023/05/22 08:05:34;;;;;;;16.10;14.60;;;20.20;99.90;;;;;;5095012;28;20365;-47
2023/05/22 08:07:59;;;;;;;17.50;15.80;;;20.40;99.90;;;;;;5095326;28;20448;-47
2023/05/22 08:10:25;;;;;;;17.77;16.27;;;20.50;1.00;;;;;;5092802;28;20419;-56
2023/05/22 08:12:51;;;;;;;19.80;18.00;;;20.70;1.00;;;;;;5093644;28;20694;-55
2023/05/22 08:15:16;;;;;;;19.53;17.77;;;20.90;99.90;;;;;;5093617;28;20165;-56
2023/05/22 08:17:42;;;;;;;18.33;16.73;;;21.10;99.90;;;;;;5093942;28;20614;-57
2023/05/22 08:20:10;;;;;;;17.00;15.00;;;21.30;99.90;;;;;;5093228;28;20172;-57
2023/05/22 08:22:37;;;;;;;20.23;18.43;;;21.40;31.60;;;;;;5093109;28;20180;-55
2023/05/22 08:25:03;;;;;;;18.13;16.43;;;21.40;1.00;;;;;;5093721;28;20700;-55
2023/05/22 08:27:29;;;;;;;17.57;15.70;;;21.40;1.00;;;;;;5092567;28;20426;-56
2023/05/22 08:29:55;;;;;;;18.20;16.50;;;21.70;1.00;;;;;;5093781;28;20535;-56
2023/05/22 08:32:20;;;;;;;16.63;15.27;;;21.90;1.00;;;;;;5094853;28;20362;-56
2023/05/22 08:34:46;;;;;;;17.17;15.57;;;22.20;1.00;;;;;;5094555;28;20222;-55
2023/05/22 08:37:13;;;;;;;16.53;14.93;;;22.50;99.90;;;;;;5093041;28;20274;-57
2023/05/22 08:39:39;;;;;;;15.87;14.37;;;22.90;99.90;;;;;;5094632;28;20200;-56
2023/05/22 08:42:05;;;;;;;15.90;14.60;;;23.20;99.90;;;;;;5093543;28;20692;-58
2023/05/22 08:44:31;;;;;;;18.70;17.00;;;23.40;99.90;;;;;;5092563;28;20180;-56
2023/05/22 08:46:59;;;;;;;15.00;13.80;;;23.70;99.90;;;;;;5091461;28;20180;-55
2023/05/22 08:49:25;;;;;;;15.53;14.30;;;23.80;99.90;;;;;;5090567;28;20177;-58
2023/05/22 08:51:58;;;;;;;15.80;14.40;;;24.10;99.90;;;;;;5090966;28;20509;-56
2023/05/22 08:54:25;;;;;;;14.90;13.60;;;24.30;99.90;;;;;;5090802;28;20172;-56
2023/05/22 08:56:52;;;;;;;16.30;14.80;;;24.50;56.80;;;;;;5089634;28;20474;-57
2023/05/22 08:59:18;;;;;;;17.50;16.00;;;25.00;22.70;;;;;;5090598;28;20863;-56
2023/05/22 09:01:44;;;;;;;16.33;14.80;;;25.10;1.00;;;;;;5089976;28;20426;-54
2023/05/22 09:04:11;;;;;;;15.80;14.40;;;25.00;1.00;;;;;;5089221;28;20410;-55
2023/05/22 09:06:37;;;;;;;15.10;13.70;;;25.00;1.00;;;;;;5089706;28;20433;-57
2023/05/22 09:09:03;;;;;;;15.70;14.40;;;25.10;1.00;;;;;;5089767;28;20418;-55
2023/05/22 09:11:29;;;;;;;16.57;14.93;;;25.40;1.00;;;;;;5089978;28;20452;-53
2023/05/22 09:14:08;;;;;;;15.67;14.30;;;25.90;1.00;;;;;;5095047;28;20414;-54
2023/05/22 09:16:45;;;;;;;15.17;13.97;;;26.60;1.00;;;;;;5096595;28;20465;-55
2023/05/22 09:19:12;;;;;;;17.00;15.60;;;26.90;1.00;;;;;;5095213;28;20410;-56
2023/05/22 09:21:38;;;;;;;16.07;14.40;;;27.10;1.00;;;;;;5094937;28;20847;-55
2023/05/22 09:24:07;;;;;;;16.77;15.37;;;27.10;1.00;;;;;;5095744;28;20411;-54
2023/05/22 09:26:33;;;;;;;16.13;14.73;;;27.10;1.00;;;;;;5096693;28;20472;-54
2023/05/22 09:28:59;;;;;;;16.03;14.53;;;26.80;1.00;;;;;;5095073;28;20475;-55
2023/05/22 09:31:26;;;;;;;16.50;15.10;;;27.20;1.00;;;;;;5093554;28;20567;-55
2023/05/22 09:33:53;;;;;;;15.10;13.80;;;27.10;1.00;;;;;;5092513;28;20560;-61
2023/05/22 09:36:18;;;;;;;15.73;14.37;;;27.40;1.00;;;;;;5094747;28;20452;-62
2023/05/22 09:38:44;;;;;;;15.70;14.60;;;27.90;1.00;;;;;;5094660;28;20487;-61
2023/05/22 09:41:09;;;;;;;17.77;16.17;;;28.30;1.00;;;;;;5093158;28;20256;-61
2023/05/22 09:43:35;;;;;;;16.40;14.97;;;28.60;1.00;;;;;;5094593;28;20177;-61
2023/05/22 09:46:03;;;;;;;16.17;14.70;;;28.70;1.00;;;;;;5095974;28;20176;-61
2023/05/22 09:48:33;;;;;;;15.10;13.70;;;28.90;1.00;;;;;;5095797;28;20172;-61
2023/05/22 09:50:59;;;;;;;16.90;15.47;;;29.20;1.00;;;;;;5095862;28;20438;-61
2023/05/22 09:53:29;;;;;;;14.93;13.73;;;29.60;1.00;;;;;;5094939;28;20505;-61
2023/05/22 09:55:58;;;;;;;15.13;13.93;;;29.50;1.00;;;;;;5093528;28;21087;-62
2023/05/22 09:58:26;;;;;;;15.43;14.07;;;29.70;1.00;;;;;;5092721;28;20411;-62
2023/05/22 10:00:55;;;;;;;15.30;14.10;;;29.60;1.00;;;;;;5092361;28;20426;-62
2023/05/22 10:03:23;;;;;;;15.73;14.47;;;29.60;1.00;;;;;;5093858;28;20476;-62
2023/05/22 10:05:51;;;;;;;15.13;13.83;;;29.80;1.00;;;;;;5094429;28;20461;-61
2023/05/22 10:08:20;;;;;;;16.13;14.93;;;30.00;1.00;;;;;;5092613;28;20414;-62
2023/05/22 10:10:50;;;;;;;15.80;14.60;;;30.30;1.00;;;;;;5093813;28;20765;-62
2023/05/22 10:13:16;;;;;;;15.77;14.57;;;30.40;1.00;;;;;;5095990;28;20445;-62
2023/05/22 10:15:42;;;;;;;16.50;14.87;;;30.50;1.00;;;;;;5094215;28;20405;-62
2023/05/22 10:18:08;;;;;;;14.93;13.70;;;30.50;1.00;;;;;;5095871;28;20176;-62
2023/05/22 10:20:34;;;;;;;15.80;14.50;;;30.70;1.00;;;;;;5093289;28;20426;-62
2023/05/22 10:23:02;;;;;;;16.10;14.60;;;31.00;1.00;;;;;;5093198;28;20587;-62
2023/05/22 10:25:29;;;;;;;14.67;13.57;;;31.20;1.00;;;;;;5091261;28;20221;-63
2023/05/22 10:27:55;;;;;;;16.10;14.80;;;31.60;1.00;;;;;;5091588;28;20731;-63
2023/05/22 10:30:39;;;;;;;15.53;14.17;;;31.90;1.00;;;;;;5090694;28;20486;-61
2023/05/22 10:33:17;;;;;;;14.83;13.73;;;32.00;1.00;;;;;;5095003;28;20829;-63
2023/05/22 10:36:04;;;;;;;14.57;13.43;;;32.00;1.00;;;;;;5092494;28;20404;-63
2023/05/22 10:38:58;;;;;;;15.53;14.43;;;32.00;1.00;;;;;;5092466;28;20401;-64
2023/05/22 10:41:24;;;;;;;15.80;14.53;;;31.80;1.00;;;;;;5092556;28;20461;-63
2023/05/22 10:43:51;;;;;;;14.77;13.60;;;31.20;1.00;;;;;;5093732;28;20459;-63
2023/05/22 10:46:17;;;;;;;15.50;14.30;;;31.50;1.00;;;;;;5094216;28;20883;-63
2023/05/22 10:48:46;;;;;;;14.97;13.87;;;31.80;1.00;;;;;;5094260;28;20195;-62
2023/05/22 10:51:14;;;;;;;14.60;13.50;;;32.10;1.00;;;;;;5092130;28;20401;-63
2023/05/22 10:53:41;;;;;;;14.10;12.93;;;32.30;1.00;;;;;;5091379;28;20419;-63
2023/05/22 10:56:12;;;;;;;13.50;12.50;;;32.60;1.00;;;;;;5094291;28;20445;-63
2023/05/22 10:58:38;;;;;;;14.53;13.43;;;33.00;1.00;;;;;;5094708;28;20729;-62
2023/05/22 11:01:16;;;;;;;13.60;12.60;;;33.50;1.00;;;;;;5091307;28;20426;-62
2023/05/22 11:04:03;;;;;;;14.43;13.33;;;33.70;1.00;;;;;;5093650;28;20517;-63
2023/05/22 11:06:36;;;;;;;14.87;13.77;;;33.90;1.00;;;;;;5091245;28;20655;-63
2023/05/22 11:09:32;;;;;;;13.80;12.90;;;34.20;1.00;;;;;;5092909;28;20397;-62
2023/05/22 11:12:23;;;;;;;15.67;14.47;;;34.30;1.00;;;;;;5092253;28;20525;-51
2023/05/22 11:14:57;;;;;;;14.77;13.67;;;34.30;1.00;;;;;;5093644;28;20410;-53
2023/05/22 11:17:24;;;;;;;14.47;13.43;;;34.20;1.00;;;;;;5092502;28;20858;-49
2023/05/22 11:19:57;;;;;;;17.03;15.77;;;34.30;1.00;;;;;;5093030;28;20557;-49
2023/05/22 11:22:31;;;;;;;17.00;15.73;;;34.00;1.00;;;;;;5091069;28;20422;-50
2023/05/22 11:24:57;;;;;;;16.50;15.30;;;33.00;1.00;;;;;;5087371;28;20792;-49
2023/05/22 11:27:23;;;;;;;16.10;14.70;;;32.50;1.00;;;;;;5090987;28;20514;-51
2023/05/22 11:29:49;;;;;;;15.07;14.07;;;32.40;1.00;;;;;;5089114;28;20485;-50
2023/05/22 11:32:19;;;;;;;15.40;14.30;;;32.50;1.00;;;;;;5092754;28;20448;-50
2023/05/22 11:34:51;;;;;;;14.93;13.53;;;32.90;1.00;;;;;;5091322;28;20393;-50
2023/05/22 11:37:18;;;;;;;14.87;13.77;;;33.40;1.00;;;;;;5091033;28;20433;-51
2023/05/22 11:39:55;;;;;;;15.27;14.07;;;33.70;1.00;;;;;;5092384;28;20441;-49
2023/05/22 11:42:21;;;;;;;14.43;13.10;;;34.00;1.00;;;;;;5092937;28;20708;-48
2023/05/22 11:44:46;;;;;;;15.10;13.90;;;34.00;1.00;;;;;;5092499;28;20410;-49
2023/05/22 11:47:12;;;;;;;14.03;13.07;;;34.30;1.00;;;;;;5094398;28;20176;-50
2023/05/22 11:49:41;;;;;;;16.57;14.90;;;34.50;1.00;;;;;;5091527;28;20176;-52
2023/05/22 11:52:07;;;;;;;13.83;12.83;;;34.80;1.00;;;;;;5092916;28;20418;-49
2023/05/22 11:54:32;;;;;;;14.60;13.40;;;34.80;1.00;;;;;;5091817;28;20421;-49
2023/05/22 11:56:58;;;;;;;14.53;13.43;;;34.50;1.00;;;;;;5092408;28;20740;-52
2023/05/22 11:59:24;;;;;;;14.03;12.73;;;34.40;1.00;;;;;;5094372;28;20241;-49
2023/05/22 12:01:50;;;;;;;13.83;12.80;;;34.40;1.00;;;;;;5091912;28;20191;-50
2023/05/22 12:04:15;;;;;;;14.63;13.43;;;34.60;1.00;;;;;;5092407;28;20174;-51
2023/05/22 12:06:41;;;;;;;14.50;12.97;;;34.90;1.00;;;;;;5092308;28;20436;-50
2023/05/22 12:09:07;;;;;;;14.17;12.87;;;35.20;1.00;;;;;;5091449;28;20184;-49
2023/05/22 12:11:36;;;;;;;14.10;13.00;;;35.30;1.00;;;;;;5092903;28;20433;-49
2023/05/22 12:14:03;;;;;;;14.90;13.50;;;35.10;1.00;;;;;;5092399;28;20419;-51
2023/05/22 12:16:37;;;;;;;15.87;14.67;;;35.40;1.00;;;;;;5090839;28;20861;-49
2023/05/22 12:19:09;;;;;;;13.90;12.90;;;35.60;1.00;;;;;;5093079;28;20513;-50
2023/05/22 12:21:38;;;;;;;14.00;13.00;;;35.60;1.00;;;;;;5093139;28;20482;-49
2023/05/22 12:24:04;;;;;;;13.87;12.73;;;35.90;1.00;;;;;;5094731;28;20400;-48
2023/05/22 12:26:31;;;;;;;14.20;13.20;;;36.00;1.00;;;;;;5093332;28;20434;-49
2023/05/22 12:28:57;;;;;;;14.07;13.00;;;36.30;1.00;;;;;;5074083;28;20509;-49
2023/05/22 12:31:23;;;;;;;13.60;12.60;;;36.60;1.00;;;;;;5091246;28;20430;-49
2023/05/22 12:33:55;;;;;;;13.93;12.77;;;36.60;1.00;;;;;;5091902;28;20430;-48
2023/05/22 12:36:45;;;;;;;14.23;12.70;;;36.40;1.00;;;;;;5090882;28;20466;-52
2023/05/22 12:39:15;;;;;;;14.40;13.30;;;36.40;1.00;;;;;;5091460;28;20491;-49